Time;durP1;ratioP1;P1;durP2;ratioP2;P2;SDS_P1;SDS_P2;PMS_P1;PMS_P2;Temp;Humidity;BMP_temperature;BMP_pressure;BME280_temperature;BME280_humidity;BME280_pressure;Samples;Min_cycle;Max_cycle;Signal;HPM_P1;HPM_P2
2022/03/04 00:01:00;;;;;;;6.72;3.47;;;;;;;;;;5073723;28;20063;-47
2022/03/04 00:03:26;;;;;;;4.68;3.35;;;;;;;;;;5073490;28;20041;-47
2022/03/04 00:05:52;;;;;;;5.03;3.40;;;;;;;;;;5073722;28;20090;-47
2022/03/04 00:08:18;;;;;;;3.83;3.05;;;;;;;;;;5073571;28;20445;-47
2022/03/04 00:10:44;;;;;;;3.15;2.83;;;;;;;;;;5073413;28;20505;-47
2022/03/04 00:13:10;;;;;;;3.50;2.78;;;;;;;;;;5073527;28;20111;-46
2022/03/04 00:15:36;;;;;;;5.80;3.30;;;;;;;;;;5073388;28;20028;-46
2022/03/04 00:18:02;;;;;;;4.22;3.15;;;;;;;;;;5073356;28;20021;-46
2022/03/04 00:20:28;;;;;;;4.50;3.15;;;;;;;;;;5073323;28;20044;-46
2022/03/04 00:22:54;;;;;;;4.35;3.35;;;;;;;;;;5073302;28;20471;-47
2022/03/04 00:25:21;;;;;;;4.55;2.90;;;;;;;;;;5073300;28;20036;-46
2022/03/04 00:27:47;;;;;;;3.92;2.90;;;;;;;;;;5073525;28;20035;-47
2022/03/04 00:30:13;;;;;;;4.30;2.92;;;;;;;;;;5073142;28;20132;-47
2022/03/04 00:32:39;;;;;;;5.05;3.53;;;;;;;;;;5073452;28;20027;-46
2022/03/04 00:35:06;;;;;;;3.28;2.95;;;;;;;;;;5073360;28;20024;-47
2022/03/04 00:37:32;;;;;;;5.05;3.47;;;;;;;;;;5073319;28;20103;-47
2022/03/04 00:39:58;;;;;;;3.63;3.00;;;;;;;;;;5072940;28;20104;-47
2022/03/04 00:42:24;;;;;;;3.65;2.75;;;;;;;;;;5071893;28;20421;-48
2022/03/04 00:44:50;;;;;;;3.35;3.00;;;;;;;;;;5072912;28;20078;-48
2022/03/04 00:47:16;;;;;;;3.97;3.00;;;;;;;;;;5072876;28;20497;-48
2022/03/04 00:49:42;;;;;;;4.25;2.60;;;;;;;;;;5072714;28;20036;-48
2022/03/04 00:52:08;;;;;;;4.55;3.47;;;;;;;;;;5072689;28;20532;-48
2022/03/04 00:54:34;;;;;;;3.35;2.83;;;;;;;;;;5072672;28;20032;-46
2022/03/04 00:57:00;;;;;;;4.68;3.22;;;;;;;;;;5072664;28;20024;-47
2022/03/04 00:59:26;;;;;;;4.22;3.00;;;;;;;;;;5072622;28;20056;-47
2022/03/04 01:01:52;;;;;;;4.03;3.22;;;;;;;;;;5072335;28;20024;-46
2022/03/04 01:04:18;;;;;;;5.00;3.33;;;;;;;;;;5072671;28;20033;-47
2022/03/04 01:06:44;;;;;;;4.05;2.78;;;;;;;;;;5072411;28;20028;-46
2022/03/04 01:09:10;;;;;;;3.85;3.25;;;;;;;;;;5072370;28;20066;-46
2022/03/04 01:11:37;;;;;;;4.18;3.15;;;;;;;;;;5072317;28;20029;-46
2022/03/04 01:14:03;;;;;;;6.13;3.05;;;;;;;;;;5072373;28;20059;-46
2022/03/04 01:16:29;;;;;;;6.22;3.28;;;;;;;;;;5072443;28;20123;-46
2022/03/04 01:18:55;;;;;;;3.40;2.83;;;;;;;;;;5072520;28;20021;-46
2022/03/04 01:21:21;;;;;;;4.30;3.05;;;;;;;;;;5072505;28;20115;-47
2022/03/04 01:23:47;;;;;;;4.35;3.13;;;;;;;;;;5072274;28;20025;-47
2022/03/04 01:26:13;;;;;;;5.32;3.22;;;;;;;;;;5072256;28;20087;-47
2022/03/04 01:28:39;;;;;;;3.92;2.95;;;;;;;;;;5072430;28;20036;-48
2022/03/04 01:31:06;;;;;;;3.92;2.97;;;;;;;;;;5072392;28;20033;-46
2022/03/04 01:33:32;;;;;;;3.97;3.10;;;;;;;;;;5072463;28;20032;-47
2022/03/04 01:35:57;;;;;;;4.00;2.78;;;;;;;;;;5072087;28;20036;-46
2022/03/04 01:38:23;;;;;;;4.07;2.80;;;;;;;;;;5072170;28;20067;-46
2022/03/04 01:40:49;;;;;;;3.45;3.00;;;;;;;;;;5072193;28;20029;-47
2022/03/04 01:43:15;;;;;;;3.95;3.20;;;;;;;;;;5072359;28;20016;-46
2022/03/04 01:45:48;;;;;;;4.88;3.00;;;;;;;;;;5072095;28;20406;-46
2022/03/04 01:48:14;;;;;;;4.72;3.47;;;;;;;;;;5071964;28;20029;-46
2022/03/04 01:50:40;;;;;;;6.15;3.35;;;;;;;;;;5072070;28;20102;-47
2022/03/04 01:53:06;;;;;;;4.05;3.10;;;;;;;;;;5072501;28;20021;-47
2022/03/04 01:55:32;;;;;;;3.97;2.85;;;;;;;;;;5076197;28;20036;-48
2022/03/04 01:57:58;;;;;;;3.63;3.15;;;;;;;;;;5076483;28;20104;-46
2022/03/04 02:00:24;;;;;;;4.13;2.95;;;;;;;;;;5076172;28;20025;-46
2022/03/04 02:02:50;;;;;;;4.95;2.63;;;;;;;;;;5075844;28;20057;-47
2022/03/04 02:05:23;;;;;;;3.78;3.03;;;;;;;;;;5075890;28;20031;-47
2022/03/04 02:07:49;;;;;;;3.47;2.65;;;;;;;;;;5075951;28;20151;-47
2022/03/04 02:10:15;;;;;;;3.60;2.80;;;;;;;;;;5075828;28;20264;-47
2022/03/04 02:12:41;;;;;;;4.63;3.20;;;;;;;;;;5075924;28;20123;-46
2022/03/04 02:15:08;;;;;;;4.22;3.08;;;;;;;;;;5076042;28;20035;-47
2022/03/04 02:17:34;;;;;;;3.80;2.80;;;;;;;;;;5075946;28;20524;-46
2022/03/04 02:20:01;;;;;;;4.47;3.05;;;;;;;;;;5075629;28;20497;-47
2022/03/04 02:22:27;;;;;;;4.55;3.00;;;;;;;;;;5075856;28;20449;-47
2022/03/04 02:24:53;;;;;;;3.35;2.97;;;;;;;;;;5075577;28;20127;-46
2022/03/04 02:27:19;;;;;;;3.75;3.13;;;;;;;;;;5075612;28;20024;-47
2022/03/04 02:29:45;;;;;;;4.22;3.42;;;;;;;;;;5075484;28;20098;-47
2022/03/04 02:32:11;;;;;;;3.50;2.88;;;;;;;;;;5075542;28;20486;-47
2022/03/04 02:34:37;;;;;;;3.72;3.03;;;;;;;;;;5075557;28;20039;-48
2022/03/04 02:37:03;;;;;;;5.10;3.33;;;;;;;;;;5075394;28;20098;-47
2022/03/04 02:39:29;;;;;;;4.32;3.38;;;;;;;;;;5075458;28;20032;-46
2022/03/04 02:41:55;;;;;;;3.35;3.05;;;;;;;;;;5075426;28;20035;-46
2022/03/04 02:44:21;;;;;;;4.18;3.22;;;;;;;;;;5075185;28;20055;-48
2022/03/04 02:46:47;;;;;;;3.97;3.58;;;;;;;;;;5075468;28;20025;-47
2022/03/04 02:49:13;;;;;;;4.65;3.40;;;;;;;;;;5075082;28;20389;-48
2022/03/04 02:51:40;;;;;;;5.57;3.30;;;;;;;;;;5075174;28;20037;-47
2022/03/04 02:54:06;;;;;;;3.72;2.80;;;;;;;;;;5075345;28;20153;-47
2022/03/04 02:56:32;;;;;;;4.80;3.30;;;;;;;;;;5075052;28;20084;-46
2022/03/04 02:58:58;;;;;;;5.07;3.42;;;;;;;;;;5075014;28;20048;-47
2022/03/04 03:01:25;;;;;;;5.40;3.60;;;;;;;;;;5074842;28;20063;-46
2022/03/04 03:03:51;;;;;;;6.80;3.60;;;;;;;;;;5074720;28;20052;-46
2022/03/04 03:06:18;;;;;;;3.80;3.05;;;;;;;;;;5073938;28;20035;-46
2022/03/04 03:08:44;;;;;;;4.28;3.25;;;;;;;;;;5074719;28;20563;-47
2022/03/04 03:11:10;;;;;;;4.93;3.65;;;;;;;;;;5074797;28;20041;-46
2022/03/04 03:13:36;;;;;;;3.95;2.90;;;;;;;;;;5074870;28;20020;-46
2022/03/04 03:16:02;;;;;;;4.82;3.38;;;;;;;;;;5074674;28;20032;-46
2022/03/04 03:18:28;;;;;;;3.75;3.13;;;;;;;;;;5074663;28;20073;-47
2022/03/04 03:20:54;;;;;;;4.22;3.10;;;;;;;;;;5074866;28;20024;-46
2022/03/04 03:23:20;;;;;;;3.50;3.17;;;;;;;;;;5074525;28;20368;-46
2022/03/04 03:25:46;;;;;;;3.65;2.85;;;;;;;;;;5074601;28;20126;-46
2022/03/04 03:28:12;;;;;;;4.75;3.42;;;;;;;;;;5074851;28;20029;-47
2022/03/04 03:30:38;;;;;;;3.92;3.50;;;;;;;;;;5074438;28;20395;-46
2022/03/04 03:33:04;;;;;;;5.28;3.60;;;;;;;;;;5074313;28;20382;-46
2022/03/04 03:35:30;;;;;;;4.50;3.30;;;;;;;;;;5074259;28;20106;-47
2022/03/04 03:37:56;;;;;;;4.78;3.67;;;;;;;;;;5074218;28;20105;-46
2022/03/04 03:40:22;;;;;;;4.35;3.53;;;;;;;;;;5074087;28;20082;-46
2022/03/04 03:42:48;;;;;;;4.72;3.50;;;;;;;;;;5074210;28;20078;-45
2022/03/04 03:45:14;;;;;;;3.95;3.55;;;;;;;;;;5074138;28;20028;-47
2022/03/04 03:47:40;;;;;;;5.05;3.58;;;;;;;;;;5074135;28;20028;-46
2022/03/04 03:50:09;;;;;;;3.33;2.75;;;;;;;;;;5074028;28;20112;-46
2022/03/04 03:52:35;;;;;;;6.38;3.67;;;;;;;;;;5074196;28;20025;-46
2022/03/04 03:55:01;;;;;;;4.20;3.42;;;;;;;;;;5074035;28;20327;-46
2022/03/04 03:57:27;;;;;;;6.60;3.70;;;;;;;;;;5073895;28;20025;-47
2022/03/04 03:59:53;;;;;;;7.88;3.83;;;;;;;;;;5073886;28;20036;-47
2022/03/04 04:02:19;;;;;;;5.88;3.55;;;;;;;;;;5073583;28;20561;-47
2022/03/04 04:04:46;;;;;;;3.10;2.80;;;;;;;;;;5073753;28;20475;-47
2022/03/04 04:07:12;;;;;;;4.57;3.50;;;;;;;;;;5073762;28;20035;-47
2022/03/04 04:09:39;;;;;;;6.80;4.25;;;;;;;;;;5073619;28;20123;-48
2022/03/04 04:12:05;;;;;;;4.65;3.75;;;;;;;;;;5073721;28;20021;-47
2022/03/04 04:14:31;;;;;;;5.38;3.53;;;;;;;;;;5073516;28;20038;-47
2022/03/04 04:16:57;;;;;;;6.07;3.70;;;;;;;;;;5073280;28;20103;-47
2022/03/04 04:19:24;;;;;;;4.93;3.28;;;;;;;;;;5073392;28;20082;-46
2022/03/04 04:21:50;;;;;;;6.10;3.60;;;;;;;;;;5073635;28;20116;-47
2022/03/04 04:24:17;;;;;;;5.20;3.50;;;;;;;;;;5073399;28;20072;-46
2022/03/04 04:26:42;;;;;;;5.80;4.18;;;;;;;;;;5073176;28;20024;-47
2022/03/04 04:29:08;;;;;;;3.88;3.42;;;;;;;;;;5073134;28;20043;-46
2022/03/04 04:31:35;;;;;;;3.47;3.13;;;;;;;;;;5073166;28;20029;-46
2022/03/04 04:34:01;;;;;;;4.90;3.83;;;;;;;;;;5073269;28;20439;-46
2022/03/04 04:36:27;;;;;;;5.85;4.10;;;;;;;;;;5073136;28;20052;-47
2022/03/04 04:38:53;;;;;;;5.15;3.67;;;;;;;;;;5073069;28;20060;-46
2022/03/04 04:41:19;;;;;;;6.18;3.85;;;;;;;;;;5072943;28;20028;-47
2022/03/04 04:43:45;;;;;;;4.93;3.63;;;;;;;;;;5073062;28;20032;-47
2022/03/04 04:46:11;;;;;;;4.18;3.78;;;;;;;;;;5073039;28;20029;-47
2022/03/04 04:48:37;;;;;;;5.25;3.78;;;;;;;;;;5072801;28;20388;-48
2022/03/04 04:51:04;;;;;;;7.05;4.28;;;;;;;;;;5072827;28;20024;-47
2022/03/04 04:53:30;;;;;;;5.13;3.85;;;;;;;;;;5072817;28;20475;-47
2022/03/04 04:55:56;;;;;;;3.95;3.33;;;;;;;;;;5072980;28;20029;-47
2022/03/04 04:58:22;;;;;;;5.35;3.50;;;;;;;;;;5072629;28;20021;-47
2022/03/04 05:00:50;;;;;;;4.88;3.72;;;;;;;;;;5072622;28;20056;-46
2022/03/04 05:03:17;;;;;;;7.03;3.90;;;;;;;;;;5072573;28;20059;-47
2022/03/04 05:05:43;;;;;;;4.78;3.47;;;;;;;;;;5072348;28;20078;-46
2022/03/04 05:08:09;;;;;;;4.53;3.83;;;;;;;;;;5072517;28;20033;-46
2022/03/04 05:10:35;;;;;;;5.00;3.80;;;;;;;;;;5072320;28;20036;-46
2022/03/04 05:13:01;;;;;;;5.38;3.78;;;;;;;;;;5072296;28;20479;-46
2022/03/04 05:15:27;;;;;;;5.38;3.80;;;;;;;;;;5072450;28;20028;-46
2022/03/04 05:17:53;;;;;;;6.07;4.30;;;;;;;;;;5072359;28;20519;-47
2022/03/04 05:20:19;;;;;;;3.92;3.42;;;;;;;;;;5072493;28;20028;-47
2022/03/04 05:22:45;;;;;;;4.80;4.00;;;;;;;;;;5072324;28;20112;-47
2022/03/04 05:25:11;;;;;;;5.45;3.83;;;;;;;;;;5072328;28;20112;-46
2022/03/04 05:27:37;;;;;;;5.88;4.15;;;;;;;;;;5071903;28;20025;-47
2022/03/04 05:30:04;;;;;;;5.22;3.78;;;;;;;;;;5071949;28;20032;-46
2022/03/04 05:32:30;;;;;;;6.63;3.63;;;;;;;;;;5072322;28;20249;-48
2022/03/04 05:34:56;;;;;;;6.07;4.07;;;;;;;;;;5072114;28;20595;-47
2022/03/04 05:37:22;;;;;;;7.00;3.72;;;;;;;;;;5072384;28;20152;-46
2022/03/04 05:39:48;;;;;;;5.10;3.63;;;;;;;;;;5072271;28;20107;-47
2022/03/04 05:42:14;;;;;;;5.78;3.88;;;;;;;;;;5072084;28;20020;-47
2022/03/04 05:44:40;;;;;;;4.85;3.72;;;;;;;;;;5072046;28;20028;-47
2022/03/04 05:47:06;;;;;;;5.90;4.10;;;;;;;;;;5071909;28;20033;-47
2022/03/04 05:49:32;;;;;;;5.13;3.60;;;;;;;;;;5071984;28;20037;-46
2022/03/04 05:51:58;;;;;;;5.30;4.05;;;;;;;;;;5072312;28;20050;-47
2022/03/04 05:54:24;;;;;;;6.15;3.60;;;;;;;;;;5072278;28;20391;-47
2022/03/04 05:56:50;;;;;;;5.20;3.75;;;;;;;;;;5072215;28;20070;-47
2022/03/04 05:59:16;;;;;;;5.55;4.05;;;;;;;;;;5072018;28;20036;-47
2022/03/04 06:01:42;;;;;;;4.78;3.60;;;;;;;;;;5072001;28;20028;-46
2022/03/04 06:04:08;;;;;;;6.47;3.95;;;;;;;;;;5071942;28;20089;-46
2022/03/04 06:06:34;;;;;;;5.72;3.80;;;;;;;;;;5071964;28;20028;-46
2022/03/04 06:09:00;;;;;;;4.60;3.88;;;;;;;;;;5071731;28;20079;-46
2022/03/04 06:11:26;;;;;;;5.30;3.67;;;;;;;;;;5071859;28;20033;-47
2022/03/04 06:13:52;;;;;;;5.05;3.83;;;;;;;;;;5071883;28;20020;-49
2022/03/04 06:16:20;;;;;;;4.18;3.40;;;;;;;;;;5071905;28;20025;-48
2022/03/04 06:18:46;;;;;;;4.82;3.38;;;;;;;;;;5072038;28;20561;-48
2022/03/04 06:21:11;;;;;;;5.93;3.33;;;;;;;;;;5071750;28;20134;-47
2022/03/04 06:23:39;;;;;;;4.72;3.40;;;;;;;;;;5071747;28;20028;-49
2022/03/04 06:26:05;;;;;;;4.78;3.30;;;;;;;;;;5071587;28;20050;-46
2022/03/04 06:28:31;;;;;;;4.75;3.13;;;;;;;;;;5071650;28;20035;-46
2022/03/04 06:30:57;;;;;;;5.57;3.45;;;;;;;;;;5072071;28;20115;-46
2022/03/04 06:33:32;;;;;;;4.90;3.15;;;;;;;;;;5071831;28;20459;-46
2022/03/04 06:36:12;;;;;;;8.07;3.42;;;;;;;;;;5071909;28;20028;-46
2022/03/04 06:38:41;;;;;;;4.70;3.13;;;;;;;;;;5071697;28;20056;-46
2022/03/04 06:41:07;;;;;;;3.50;2.88;;;;;;;;;;5075424;28;20028;-46
2022/03/04 06:43:33;;;;;;;3.38;2.60;;;;;;;;;;5075571;28;20024;-46
2022/03/04 06:45:59;;;;;;;3.55;2.92;;;;;;;;;;5075249;28;20029;-47
2022/03/04 06:48:26;;;;;;;3.83;3.13;;;;;;;;;;5075250;28;20090;-46
2022/03/04 06:50:53;;;;;;;4.45;2.70;;;;;;;;;;5075500;28;20382;-47
2022/03/04 06:53:19;;;;;;;3.20;2.83;;;;;;;;;;5075436;28;20483;-46
2022/03/04 06:55:46;;;;;;;4.75;3.15;;;;;;;;;;5075261;28;20056;-47
2022/03/04 06:58:12;;;;;;;4.88;3.58;;;;;;;;;;5075188;28;20517;-46
2022/03/04 07:00:39;;;;;;;5.28;3.35;;;;;;;;;;5075124;28;20387;-48
2022/03/04 07:03:05;;;;;;;5.15;3.10;;;;;;;;;;5074898;28;20044;-46
2022/03/04 07:05:31;;;;;;;5.43;3.42;;;;;;;;;;5075049;28;20179;-46
2022/03/04 07:07:58;;;;;;;4.57;3.63;;;;;;;;;;5075007;28;20037;-47
2022/03/04 07:10:24;;;;;;;4.80;3.45;;;;;;;;;;5074816;28;20047;-46
2022/03/04 07:12:50;;;;;;;7.07;3.53;;;;;;;;;;5074946;28;20028;-46
2022/03/04 07:15:16;;;;;;;4.43;2.75;;;;;;;;;;5074931;28;20031;-47
2022/03/04 07:17:42;;;;;;;9.50;3.75;;;;;;;;;;5074779;28;20111;-47
2022/03/04 07:20:09;;;;;;;5.97;3.53;;;;;;;;;;5075137;28;20113;-47
2022/03/04 07:22:39;;;;;;;12.55;3.60;;;;;;;;;;5074969;28;20378;-47
2022/03/04 07:25:06;;;;;;;8.07;4.53;;;;;;;;;;5074918;28;20176;-47
2022/03/04 07:27:38;;;;;;;5.82;4.28;;;;;;;;;;5074439;28;20521;-46
2022/03/04 07:30:08;;;;;;;7.53;5.15;;;;;;;;;;5074673;28;20033;-59
2022/03/04 07:32:34;;;;;;;11.45;4.25;;;;;;;;;;5074890;28;20038;-58
2022/03/04 07:35:00;;;;;;;7.32;4.32;;;;;;;;;;5074503;28;20043;-59
2022/03/04 07:37:26;;;;;;;7.90;4.10;;;;;;;;;;5074754;28;20024;-58
2022/03/04 07:39:52;;;;;;;7.03;4.57;;;;;;;;;;5074436;28;20036;-60
2022/03/04 07:42:18;;;;;;;9.68;4.10;;;;;;;;;;5074305;28;20116;-60
2022/03/04 07:44:44;;;;;;;7.43;4.10;;;;;;;;;;5074341;28;20104;-60
2022/03/04 07:47:10;;;;;;;7.25;4.55;;;;;;;;;;5074358;28;20039;-60
2022/03/04 07:49:36;;;;;;;5.65;3.88;;;;;;;;;;5074117;28;20040;-59
2022/03/04 07:52:02;;;;;;;5.40;3.70;;;;;;;;;;5073673;28;20032;-59
2022/03/04 07:54:28;;;;;;;12.32;3.83;;;;;;;;;;5074145;28;20039;-60
2022/03/04 07:56:55;;;;;;;5.07;3.33;;;;;;;;;;5074049;28;20111;-59
2022/03/04 07:59:21;;;;;;;7.15;3.70;;;;;;;;;;5073835;28;20081;-60
2022/03/04 08:01:48;;;;;;;8.23;4.28;;;;;;;;;;5073678;28;20032;-61
2022/03/04 08:04:14;;;;;;;9.60;3.97;;;;;;;;;;5073937;28;20032;-60
2022/03/04 08:06:40;;;;;;;9.75;3.88;;;;;;;;;;5073912;28;20067;-60
2022/03/04 08:09:06;;;;;;;6.10;3.72;;;;;;;;;;5073910;28;20024;-60
2022/03/04 08:11:39;;;;;;;4.47;3.15;;;;;;;;;;5074178;28;20112;-58
2022/03/04 08:14:05;;;;;;;5.88;3.40;;;;;;;;;;5073969;28;20039;-60
2022/03/04 08:16:33;;;;;;;8.30;4.30;;;;;;;;;;5073802;28;20558;-60
2022/03/04 08:19:02;;;;;;;6.00;3.45;;;;;;;;;;5073678;28;20067;-60
2022/03/04 08:21:28;;;;;;;8.18;3.15;;;;;;;;;;5073608;28;20478;-60
2022/03/04 08:23:54;;;;;;;6.50;3.70;;;;;;;;;;5073568;28;20024;-60
2022/03/04 08:26:20;;;;;;;7.32;3.47;;;;;;;;;;5073554;28;20028;-60
2022/03/04 08:28:46;;;;;;;5.50;3.28;;;;;;;;;;5073400;28;20059;-60
2022/03/04 08:31:13;;;;;;;5.68;3.42;;;;;;;;;;5073466;28;20544;-60
2022/03/04 08:33:39;;;;;;;11.80;3.40;;;;;;;;;;5073711;28;20079;-60
2022/03/04 08:36:05;;;;;;;5.03;3.30;;;;;;;;;;5073327;28;20033;-60
2022/03/04 08:38:32;;;;;;;5.18;2.85;;;;;;;;;;5073251;28;20040;-60
2022/03/04 08:40:57;;;;;;;6.10;3.50;;;;;;;;;;5073305;28;20026;-60
2022/03/04 08:43:24;;;;;;;5.13;3.20;;;;;;;;;;5073319;28;20387;-60
2022/03/04 08:45:49;;;;;;;6.03;3.13;;;;;;;;;;5073172;28;20486;-60
2022/03/04 08:48:16;;;;;;;4.57;2.83;;;;;;;;;;5072992;28;20033;-60
2022/03/04 08:50:42;;;;;;;6.15;3.33;;;;;;;;;;5073123;28;20033;-60
2022/03/04 08:53:08;;;;;;;4.43;3.10;;;;;;;;;;5072943;28;20051;-60
2022/03/04 08:55:34;;;;;;;4.32;3.17;;;;;;;;;;5072913;28;20036;-60
2022/03/04 08:58:00;;;;;;;4.78;2.72;;;;;;;;;;5072796;28;20439;-60
2022/03/04 09:00:32;;;;;;;4.68;3.13;;;;;;;;;;5072960;28;20028;-60
2022/03/04 09:02:58;;;;;;;4.97;3.25;;;;;;;;;;5071886;28;20397;-60
2022/03/04 09:05:24;;;;;;;5.40;3.10;;;;;;;;;;5072847;28;20054;-60
2022/03/04 09:07:50;;;;;;;3.00;2.53;;;;;;;;;;5072759;28;20036;-60
2022/03/04 09:10:16;;;;;;;3.65;2.50;;;;;;;;;;5072551;28;20041;-59
2022/03/04 09:12:42;;;;;;;4.68;2.50;;;;;;;;;;5072556;28;20029;-60
2022/03/04 09:15:08;;;;;;;4.95;2.60;;;;;;;;;;5072902;28;20025;-59
2022/03/04 09:17:35;;;;;;;4.72;2.83;;;;;;;;;;5072852;28;20032;-59
2022/03/04 09:20:01;;;;;;;3.78;2.60;;;;;;;;;;5072543;28;20376;-60
2022/03/04 09:22:27;;;;;;;3.75;3.10;;;;;;;;;;5072500;28;20021;-60
2022/03/04 09:24:53;;;;;;;6.55;3.97;;;;;;;;;;5072354;28;20047;-60
2022/03/04 09:27:19;;;;;;;7.10;4.28;;;;;;;;;;5072462;28;20091;-60
2022/03/04 09:29:45;;;;;;;9.32;3.83;;;;;;;;;;5072371;28;20032;-60
2022/03/04 09:32:12;;;;;;;9.40;4.30;;;;;;;;;;5072746;28;20452;-60
2022/03/04 09:34:38;;;;;;;7.00;4.05;;;;;;;;;;5072476;28;20099;-60
2022/03/04 09:37:04;;;;;;;6.90;4.00;;;;;;;;;;5072437;28;20028;-60
2022/03/04 09:39:30;;;;;;;7.05;4.80;;;;;;;;;;5072481;28;20071;-60
2022/03/04 09:41:56;;;;;;;7.10;4.47;;;;;;;;;;5072362;28;20057;-60
2022/03/04 09:44:22;;;;;;;7.75;4.03;;;;;;;;;;5072635;28;20062;-60
2022/03/04 09:46:49;;;;;;;6.72;4.40;;;;;;;;;;5072271;28;20024;-60
2022/03/04 09:49:15;;;;;;;7.47;4.25;;;;;;;;;;5072222;28;20041;-60
2022/03/04 09:51:41;;;;;;;8.32;4.32;;;;;;;;;;5072295;28;20031;-60
2022/03/04 09:54:07;;;;;;;6.72;4.60;;;;;;;;;;5072169;28;20499;-59
2022/03/04 09:56:33;;;;;;;6.65;4.75;;;;;;;;;;5072387;28;20255;-60
2022/03/04 09:59:03;;;;;;;10.57;4.72;;;;;;;;;;5072214;28;20029;-60
2022/03/04 10:01:29;;;;;;;6.50;4.30;;;;;;;;;;5072502;28;20020;-59
2022/03/04 10:03:55;;;;;;;5.70;3.80;;;;;;;;;;5072048;28;20041;-60
2022/03/04 10:06:22;;;;;;;6.45;4.05;;;;;;;;;;5072116;28;20028;-59
2022/03/04 10:08:52;;;;;;;7.90;4.20;;;;;;;;;;5072400;28;20021;-60
2022/03/04 10:11:21;;;;;;;;;;;;;;;;;;5072811;28;20060;-60
2022/03/04 10:13:53;;;;;;;5.43;4.18;;;;;;;;;;5072633;28;20263;-60
2022/03/04 10:16:29;;;;;;;6.55;4.30;;;;;;;;;;5076270;28;20028;-60
2022/03/04 10:19:07;;;;;;;8.05;4.55;;;;;;;;;;5076736;28;20097;-60
2022/03/04 10:21:57;;;;;;;6.55;4.35;;;;;;;;;;5076034;28;20101;-60
2022/03/04 10:24:29;;;;;;;7.35;4.90;;;;;;;;;;5076059;28;20032;-61
2022/03/04 10:27:02;;;;;;;7.70;5.03;;;;;;;;;;5076110;28;20020;-61
2022/03/04 10:29:29;;;;;;;8.18;4.93;;;;;;;;;;5075831;28;20090;-60
2022/03/04 10:32:22;;;;;;;7.97;4.65;;;;;;;;;;5077947;28;20073;-61
2022/03/04 10:34:55;;;;;;;8.55;4.45;;;;;;;;;;5076288;28;20055;-60
2022/03/04 10:37:26;;;;;;;5.35;4.22;;;;;;;;;;5075911;28;20063;-61
2022/03/04 10:40:02;;;;;;;7.13;4.47;;;;;;;;;;5075938;28;20464;-61
2022/03/04 10:42:39;;;;;;;8.98;4.30;;;;;;;;;;5076682;28;20383;-61
2022/03/04 10:45:09;;;;;;;7.93;4.40;;;;;;;;;;5076008;28;20131;-61
2022/03/04 10:47:58;;;;;;;6.28;4.55;;;;;;;;;;5077262;28;20028;-61
2022/03/04 10:50:32;;;;;;;6.47;3.90;;;;;;;;;;5076556;28;20082;-61
2022/03/04 10:53:05;;;;;;;6.47;4.53;;;;;;;;;;5075924;28;20025;-61
2022/03/04 10:55:36;;;;;;;5.43;4.28;;;;;;;;;;5075740;28;20119;-61
2022/03/04 10:58:06;;;;;;;10.02;4.80;;;;;;;;;;5075510;28;20137;-60
2022/03/04 11:00:37;;;;;;;6.07;3.70;;;;;;;;;;5076351;28;20440;-60
2022/03/04 11:03:07;;;;;;;6.53;4.32;;;;;;;;;;5075203;28;20052;-61
2022/03/04 11:05:34;;;;;;;5.60;4.20;;;;;;;;;;5075569;28;20031;-61
2022/03/04 11:08:00;;;;;;;5.78;4.20;;;;;;;;;;5075198;28;20039;-60
2022/03/04 11:10:26;;;;;;;5.82;4.38;;;;;;;;;;5075800;28;20028;-60
2022/03/04 11:12:55;;;;;;;7.43;4.45;;;;;;;;;;5075370;28;20093;-60
2022/03/04 11:15:25;;;;;;;6.43;4.55;;;;;;;;;;5075510;28;20020;-61
2022/03/04 11:17:54;;;;;;;8.90;4.40;;;;;;;;;;5074935;28;20390;-61
2022/03/04 11:20:20;;;;;;;8.07;4.55;;;;;;;;;;5074806;28;20418;-61
2022/03/04 11:22:49;;;;;;;6.43;4.53;;;;;;;;;;5074990;28;20021;-61
2022/03/04 11:25:16;;;;;;;6.43;4.10;;;;;;;;;;5074941;28;20032;-61
2022/03/04 11:27:49;;;;;;;6.38;4.95;;;;;;;;;;5074077;28;20025;-60
2022/03/04 11:30:31;;;;;;;6.88;4.78;;;;;;;;;;5074959;28;20526;-47
2022/03/04 11:33:09;;;;;;;6.38;4.30;;;;;;;;;;5074952;28;20111;-47
2022/03/04 11:35:35;;;;;;;6.00;4.40;;;;;;;;;;5074643;28;20020;-47
2022/03/04 11:38:01;;;;;;;5.55;4.13;;;;;;;;;;5074596;28;20112;-47
2022/03/04 11:40:33;;;;;;;5.43;4.20;;;;;;;;;;5074539;28;20442;-47
2022/03/04 11:42:59;;;;;;;7.40;4.80;;;;;;;;;;5073214;28;20510;-47
2022/03/04 11:45:33;;;;;;;6.32;4.55;;;;;;;;;;5074705;28;20360;-47
2022/03/04 11:48:09;;;;;;;6.45;4.00;;;;;;;;;;5074557;28;20024;-47
2022/03/04 11:50:39;;;;;;;5.35;4.43;;;;;;;;;;5074317;28;20074;-46
2022/03/04 11:53:25;;;;;;;10.13;4.53;;;;;;;;;;5074274;28;20028;-47
2022/03/04 11:56:14;;;;;;;6.20;4.22;;;;;;;;;;5074436;28;20312;-46
2022/03/04 11:59:07;;;;;;;5.20;4.40;;;;;;;;;;5074045;28;20533;-47
2022/03/04 12:01:42;;;;;;;7.05;4.65;;;;;;;;;;5074299;28;20162;-46
2022/03/04 12:04:15;;;;;;;5.05;4.43;;;;;;;;;;5074064;28;20044;-47
2022/03/04 12:06:42;;;;;;;6.75;4.90;;;;;;;;;;5074056;28;20470;-46
2022/03/04 12:09:30;;;;;;;5.65;4.05;;;;;;;;;;5073966;28;20025;-46
2022/03/04 12:12:16;;;;;;;6.65;4.70;;;;;;;;;;5073713;28;20040;-47
2022/03/04 12:14:45;;;;;;;5.43;4.40;;;;;;;;;;5073835;28;20024;-46
2022/03/04 12:17:12;;;;;;;6.70;4.72;;;;;;;;;;5073885;28;20029;-46
2022/03/04 12:19:38;;;;;;;6.25;4.40;;;;;;;;;;5073705;28;20104;-46
2022/03/04 12:22:05;;;;;;;8.00;4.38;;;;;;;;;;5073683;28;20368;-47
2022/03/04 12:24:32;;;;;;;6.80;5.25;;;;;;;;;;5073695;28;20071;-46
2022/03/04 12:26:58;;;;;;;7.40;5.20;;;;;;;;;;5073879;28;20051;-47
2022/03/04 12:29:46;;;;;;;6.47;4.95;;;;;;;;;;5073619;28;20029;-46
2022/03/04 12:32:13;;;;;;;7.13;4.45;;;;;;;;;;5073642;28;20040;-46
2022/03/04 12:34:52;;;;;;;5.85;4.40;;;;;;;;;;5073336;28;20031;-46
2022/03/04 12:37:19;;;;;;;6.63;4.75;;;;;;;;;;5073364;28;20028;-48
2022/03/04 12:39:50;;;;;;;5.82;4.20;;;;;;;;;;5073561;28;20024;-46
2022/03/04 12:42:17;;;;;;;8.18;5.13;;;;;;;;;;5073324;28;20086;-47
2022/03/04 12:44:43;;;;;;;7.72;5.38;;;;;;;;;;5073218;28;20028;-48
2022/03/04 12:47:09;;;;;;;6.88;4.93;;;;;;;;;;5073180;28;20112;-46
2022/03/04 12:49:35;;;;;;;6.90;5.13;;;;;;;;;;5073168;28;20016;-47
2022/03/04 12:52:01;;;;;;;8.70;5.60;;;;;;;;;;5072893;28;20518;-48
2022/03/04 12:54:31;;;;;;;5.80;4.68;;;;;;;;;;5073055;28;20032;-47
2022/03/04 12:57:04;;;;;;;7.10;5.47;;;;;;;;;;5072983;28;20464;-48
2022/03/04 12:59:45;;;;;;;8.07;4.63;;;;;;;;;;5073017;28;20517;-47
2022/03/04 13:02:11;;;;;;;7.57;5.03;;;;;;;;;;5072740;28;20044;-48
2022/03/04 13:04:37;;;;;;;10.95;5.00;;;;;;;;;;5072855;28;20513;-46
2022/03/04 13:07:04;;;;;;;7.05;5.20;;;;;;;;;;5072805;28;20112;-48
2022/03/04 13:09:31;;;;;;;8.15;5.55;;;;;;;;;;5071463;28;20112;-46
2022/03/04 13:12:05;;;;;;;8.77;5.47;;;;;;;;;;5072618;28;20025;-48
2022/03/04 13:14:32;;;;;;;6.80;5.25;;;;;;;;;;5073079;28;20124;-47
2022/03/04 13:16:58;;;;;;;7.75;5.60;;;;;;;;;;5072921;28;20025;-47
2022/03/04 13:19:32;;;;;;;7.88;5.97;;;;;;;;;;5072779;28;20035;-47
2022/03/04 13:22:11;;;;;;;6.93;5.00;;;;;;;;;;5072623;28;20414;-47
2022/03/04 13:24:41;;;;;;;7.28;5.10;;;;;;;;;;5072606;28;20059;-46
2022/03/04 13:27:11;;;;;;;8.57;5.43;;;;;;;;;;5072810;28;20023;-49
2022/03/04 13:29:44;;;;;;;7.93;5.32;;;;;;;;;;5072560;28;20070;-48
2022/03/04 13:32:20;;;;;;;5.20;4.13;;;;;;;;;;5072472;28;20036;-47
2022/03/04 13:34:50;;;;;;;7.65;5.25;;;;;;;;;;5072347;28;20549;-48
2022/03/04 13:37:22;;;;;;;7.28;5.40;;;;;;;;;;5072528;28;20028;-47
2022/03/04 13:40:05;;;;;;;5.93;4.60;;;;;;;;;;5072618;28;20013;-61
2022/03/04 13:42:35;;;;;;;6.65;4.72;;;;;;;;;;5072578;28;20066;-60
2022/03/04 13:45:13;;;;;;;6.78;4.80;;;;;;;;;;5072523;28;20021;-61
2022/03/04 13:47:58;;;;;;;7.20;5.40;;;;;;;;;;5072885;28;20025;-60
2022/03/04 13:50:24;;;;;;;6.55;4.57;;;;;;;;;;5072055;28;20471;-60
2022/03/04 13:53:03;;;;;;;8.43;4.63;;;;;;;;;;5072431;28;20033;-60
2022/03/04 13:55:35;;;;;;;6.28;4.75;;;;;;;;;;5072435;28;20081;-60
2022/03/04 13:58:11;;;;;;;7.45;4.40;;;;;;;;;;5072567;28;20032;-46
2022/03/04 14:00:37;;;;;;;6.63;4.28;;;;;;;;;;5072222;28;20025;-47
2022/03/04 14:03:10;;;;;;;6.85;4.65;;;;;;;;;;5071894;28;20512;-46
2022/03/04 14:05:41;;;;;;;5.85;4.38;;;;;;;;;;5072192;28;20379;-46
2022/03/04 14:08:09;;;;;;;6.40;4.20;;;;;;;;;;5072158;28;20595;-47
2022/03/04 14:10:36;;;;;;;7.35;4.68;;;;;;;;;;5072364;28;20024;-46
2022/03/04 14:13:03;;;;;;;7.55;4.53;;;;;;;;;;5072028;28;20068;-47
2022/03/04 14:15:30;;;;;;;7.82;4.55;;;;;;;;;;5072160;28;20119;-48
2022/03/04 14:18:03;;;;;;;7.35;4.97;;;;;;;;;;5071992;28;20556;-47
2022/03/04 14:20:29;;;;;;;6.00;4.25;;;;;;;;;;5071853;28;20024;-48
2022/03/04 14:22:55;;;;;;;5.78;4.47;;;;;;;;;;5071846;28;20052;-48
2022/03/04 14:25:22;;;;;;;5.22;4.40;;;;;;;;;;5072230;28;20024;-48
2022/03/04 14:27:52;;;;;;;5.78;4.70;;;;;;;;;;5071884;28;20024;-45
2022/03/04 14:30:22;;;;;;;4.97;3.92;;;;;;;;;;5071847;28;20024;-47
2022/03/04 14:32:51;;;;;;;;;;;;;;;;;;5072609;28;20040;-48
2022/03/04 14:35:18;;;;;;;5.80;3.63;;;;;;;;;;5071864;28;20357;-47
2022/03/04 14:37:44;;;;;;;6.55;4.45;;;;;;;;;;5071800;28;20032;-46
2022/03/04 14:40:18;;;;;;;6.32;4.05;;;;;;;;;;5071772;28;20521;-47
2022/03/04 14:42:50;;;;;;;6.88;4.20;;;;;;;;;;5071581;28;20454;-48
2022/03/04 14:45:17;;;;;;;8.05;4.13;;;;;;;;;;5071249;28;20016;-50
2022/03/04 14:47:43;;;;;;;5.82;3.88;;;;;;;;;;5071122;28;20033;-48